createdAt,value
2022-10-03T04:00:30.337Z,1007.01
2022-10-03T04:05:30.276Z,1007.00
2022-10-03T04:10:30.198Z,1007.14
2022-10-03T04:15:37.206Z,1007.04
2022-10-03T04:20:30.101Z,1007.09
2022-10-03T04:25:30.053Z,1007.14
2022-10-03T04:30:30.004Z,1007.19
2022-10-03T04:35:29.942Z,1007.22
2022-10-03T04:40:29.886Z,1007.14
2022-10-03T04:45:29.913Z,1007.24
2022-10-03T04:50:29.787Z,1007.22
2022-10-03T04:55:29.729Z,1007.21
2022-10-03T05:00:29.671Z,1007.17
2022-10-03T05:05:29.625Z,1007.11
2022-10-03T05:10:29.545Z,1007.11
2022-10-03T05:15:29.525Z,1007.10
2022-10-03T05:20:29.451Z,1007.10
2022-10-03T05:25:29.394Z,1007.17
2022-10-03T05:30:29.375Z,1007.28
2022-10-03T05:35:29.313Z,1007.31
2022-10-03T05:40:29.236Z,1007.43
2022-10-03T05:45:29.203Z,1007.43
2022-10-03T05:50:29.131Z,1007.47
2022-10-03T05:55:29.087Z,1007.57
2022-10-03T06:00:29.053Z,1007.61
2022-10-03T06:05:28.951Z,1007.77
2022-10-03T06:10:28.908Z,1007.74
2022-10-03T06:15:28.877Z,1007.71
2022-10-03T06:20:28.803Z,1007.73
2022-10-03T06:25:28.749Z,1007.66
2022-10-03T06:30:28.826Z,1007.70
2022-10-03T06:35:28.662Z,1007.75
2022-10-03T06:40:28.666Z,1007.78
2022-10-03T06:45:30.952Z,1007.76
2022-10-03T06:50:28.507Z,1007.91
2022-10-03T06:55:28.450Z,1007.89
2022-10-03T07:00:28.377Z,1007.91
2022-10-03T07:05:28.319Z,1007.95
2022-10-03T07:10:28.266Z,1008.01
2022-10-03T07:15:50.111Z,1007.93
2022-10-03T07:20:29.157Z,1008.15
2022-10-03T07:25:28.118Z,1008.09
2022-10-03T07:30:28.037Z,1008.06
2022-10-03T07:35:28.015Z,1008.09
2022-10-03T07:40:27.945Z,1008.19
2022-10-03T07:45:27.881Z,1008.17
2022-10-03T07:50:27.961Z,1008.26
2022-10-03T07:55:27.794Z,1008.37
2022-10-03T08:00:27.726Z,1008.39
2022-10-03T08:05:27.667Z,1008.42
2022-10-03T08:10:27.609Z,1008.37
2022-10-03T08:15:27.572Z,1008.44
2022-10-03T08:20:27.500Z,1008.44
2022-10-03T08:25:27.446Z,1008.42
2022-10-03T08:30:27.391Z,1008.55
2022-10-03T08:35:27.357Z,1008.64
2022-10-03T08:40:27.281Z,1008.69
2022-10-03T08:45:27.228Z,1008.70
2022-10-03T08:50:27.320Z,1008.63
2022-10-03T08:55:27.227Z,1008.55
2022-10-03T09:00:27.059Z,1008.57
2022-10-03T09:05:27.002Z,1008.54
2022-10-03T09:10:26.945Z,1008.49
2022-10-03T09:15:26.930Z,1008.46
2022-10-03T09:20:26.836Z,1008.51
2022-10-03T09:25:26.789Z,1008.47
2022-10-03T09:30:26.732Z,1008.51
2022-10-03T09:35:26.698Z,1008.46
2022-10-03T09:40:26.620Z,1008.53
2022-10-03T09:45:26.692Z,1008.49
2022-10-03T09:50:26.508Z,1008.33
2022-10-03T09:55:26.478Z,1008.34
2022-10-03T10:00:26.400Z,1008.32
2022-10-03T10:05:26.352Z,1008.23
2022-10-03T10:10:26.290Z,1008.29
2022-10-03T10:15:26.256Z,1008.31
2022-10-03T10:20:33.419Z,1008.29
2022-10-03T10:25:26.286Z,1008.31
2022-10-03T10:30:26.069Z,1008.25
2022-10-03T10:35:26.039Z,1008.21
2022-10-03T10:40:25.962Z,1008.24
2022-10-03T10:45:25.901Z,1008.22
2022-10-03T10:50:25.866Z,1008.18
2022-10-03T10:55:25.814Z,1008.21
2022-10-03T11:00:25.788Z,1008.18
2022-10-03T11:05:25.689Z,1008.13
2022-10-03T11:10:25.638Z,1008.08
2022-10-03T11:15:25.683Z,1008.10
2022-10-03T11:20:25.535Z,1008.04
2022-10-03T11:25:25.477Z,1008.04
2022-10-03T11:30:25.420Z,1008.02
2022-10-03T11:35:25.386Z,1008.02
2022-10-03T11:40:25.318Z,1008.03
2022-10-03T11:45:25.291Z,1007.92
2022-10-03T11:50:25.217Z,1007.90
2022-10-03T11:55:25.172Z,1007.88
2022-10-03T12:00:25.102Z,1007.87
2022-10-03T12:05:25.051Z,1007.86
2022-10-03T12:10:24.989Z,1007.88
2022-10-03T12:15:24.958Z,1007.81
2022-10-03T12:20:24.888Z,1007.78
2022-10-03T12:25:24.845Z,1007.76
2022-10-03T12:30:24.775Z,1007.67
2022-10-03T12:35:24.739Z,1007.75
2022-10-03T12:40:24.673Z,1007.70
2022-10-03T12:45:24.662Z,1007.70
2022-10-03T12:50:24.555Z,1007.62
2022-10-03T12:55:24.525Z,1007.57
2022-10-03T13:00:24.448Z,1007.58
2022-10-03T13:05:24.412Z,1007.61
2022-10-03T13:10:24.343Z,1007.64
2022-10-03T13:15:24.306Z,1007.52
2022-10-03T13:20:24.231Z,1007.47
2022-10-03T13:25:24.204Z,1007.41
2022-10-03T13:30:24.127Z,1007.45
2022-10-03T13:35:24.088Z,1007.38
2022-10-03T13:40:24.015Z,1007.31
2022-10-03T13:45:23.969Z,1007.38
2022-10-03T13:50:23.902Z,1007.34
2022-10-03T13:55:23.947Z,1007.34
2022-10-03T14:00:23.794Z,1007.29
2022-10-03T14:05:23.826Z,1007.25
2022-10-03T14:10:23.683Z,1007.19
2022-10-03T14:15:23.647Z,1007.17
2022-10-03T14:20:23.576Z,1007.20
2022-10-03T14:25:23.517Z,1007.13
2022-10-03T14:30:23.466Z,1007.17
2022-10-03T14:35:23.436Z,1007.08
2022-10-03T14:40:23.363Z,1007.21
2022-10-03T14:45:23.301Z,1007.13
2022-10-03T14:50:23.253Z,1007.13
2022-10-03T14:55:27.578Z,1007.02
2022-10-03T15:00:24.156Z,1006.97
2022-10-03T15:05:23.080Z,1006.91
2022-10-03T15:10:23.023Z,1006.89
2022-10-03T15:15:22.990Z,1006.85
2022-10-03T15:20:22.937Z,1006.82
2022-10-03T15:25:22.855Z,1006.85
2022-10-03T15:30:23.666Z,1006.74
2022-10-03T15:35:22.770Z,1006.77
2022-10-03T15:40:22.959Z,1006.69
2022-10-03T15:45:22.637Z,1006.60
2022-10-03T15:50:22.578Z,1006.51
2022-10-03T15:55:22.649Z,1006.57
2022-10-03T16:00:22.470Z,1006.58
2022-10-03T16:05:22.411Z,1006.56
2022-10-03T16:10:22.357Z,1006.58
2022-10-03T16:15:22.329Z,1006.50
2022-10-03T16:20:22.250Z,1006.54
2022-10-03T16:25:29.432Z,1006.48
2022-10-03T16:30:22.143Z,1006.42
2022-10-03T16:35:22.101Z,1006.32
2022-10-03T16:40:22.036Z,1006.27
2022-10-03T16:45:22.074Z,1006.43
2022-10-03T16:50:21.924Z,1006.41
2022-10-03T16:55:21.885Z,1006.32
2022-10-03T17:00:21.813Z,1006.26
2022-10-03T17:05:21.761Z,1006.20
2022-10-03T17:10:21.706Z,1006.23
2022-10-03T17:15:21.668Z,1006.31
2022-10-03T17:20:21.591Z,1006.27
2022-10-03T17:25:21.533Z,1006.26
2022-10-03T17:30:21.489Z,1006.29
2022-10-03T17:35:21.435Z,1006.18
2022-10-03T17:40:21.378Z,1006.18
2022-10-03T17:45:21.307Z,1006.18
2022-10-03T17:50:21.253Z,1006.07
2022-10-03T17:55:21.215Z,1006.17
2022-10-03T18:00:21.157Z,1006.13
2022-10-03T18:05:21.092Z,1006.09
2022-10-03T18:10:21.033Z,1006.12
2022-10-03T18:15:21.011Z,1006.10
2022-10-03T18:20:21.055Z,1006.12
2022-10-03T18:25:20.873Z,1006.08
2022-10-03T18:30:20.813Z,1006.02
2022-10-03T18:35:20.789Z,1006.00
2022-10-03T18:40:20.691Z,1005.95
2022-10-03T18:45:20.651Z,1005.90
2022-10-03T18:50:20.608Z,1005.88
2022-10-03T18:55:20.549Z,1005.81
2022-10-03T19:00:20.494Z,1005.88
2022-10-03T19:05:20.444Z,1005.84
2022-10-03T19:10:20.376Z,1005.83
2022-10-03T19:15:20.352Z,1005.77
2022-10-03T19:20:20.361Z,1005.88
2022-10-03T19:25:20.200Z,1005.77
2022-10-03T19:30:20.157Z,1005.95
2022-10-03T19:35:20.228Z,1005.97
2022-10-03T19:40:20.043Z,1005.98
2022-10-03T19:45:19.994Z,1005.89
2022-10-03T19:50:19.953Z,1005.79
2022-10-03T19:55:19.897Z,1005.90
2022-10-03T20:00:19.835Z,1005.90
2022-10-03T20:05:19.779Z,1005.84
2022-10-03T20:10:19.726Z,1005.89
2022-10-03T20:15:19.688Z,1005.94
2022-10-03T20:20:19.616Z,1005.97
2022-10-03T20:25:19.560Z,1006.05
2022-10-03T20:30:19.507Z,1006.02
2022-10-03T20:35:19.474Z,1005.94
2022-10-03T20:40:19.404Z,1005.87
2022-10-03T20:45:19.345Z,1005.90
2022-10-03T20:50:19.293Z,1005.83
2022-10-03T20:55:19.254Z,1005.77
2022-10-03T21:00:19.181Z,1005.81
2022-10-03T21:05:19.122Z,1005.67
2022-10-03T21:10:19.072Z,1005.58
2022-10-03T21:15:19.176Z,1005.62
2022-10-03T21:20:19.004Z,1005.68
2022-10-03T21:25:18.915Z,1005.62
2022-10-03T21:30:18.858Z,1005.57
2022-10-03T21:35:18.829Z,1005.55
2022-10-03T21:40:18.749Z,1005.59
2022-10-03T21:45:18.692Z,1005.51
2022-10-03T21:50:18.643Z,1005.45
2022-10-03T21:55:18.610Z,1005.50
2022-10-03T22:00:18.541Z,1005.60
2022-10-03T22:05:18.483Z,1005.54
2022-10-03T22:10:21.477Z,1005.48
2022-10-03T22:15:18.497Z,1005.43
2022-10-03T22:20:18.323Z,1005.54
2022-10-03T22:25:18.269Z,1005.55
2022-10-03T22:30:25.267Z,1005.39
2022-10-03T22:35:18.163Z,1005.46
2022-10-03T22:40:18.114Z,1005.41
2022-10-03T22:45:18.060Z,1005.42
2022-10-03T22:50:18.116Z,1005.41
2022-10-03T22:55:17.945Z,1005.30
2022-10-03T23:00:17.892Z,1005.22
2022-10-03T23:05:17.839Z,1005.24
2022-10-03T23:10:17.806Z,1005.14
2022-10-03T23:15:17.736Z,1004.94
2022-10-03T23:20:17.676Z,1004.91
2022-10-03T23:25:17.624Z,1004.90
